Time;durP1;ratioP1;P1;durP2;ratioP2;P2;SDS_P1;SDS_P2;PMS_P1;PMS_P2;Temp;Humidity;BMP_temperature;BMP_pressure;BME280_temperature;BME280_humidity;BME280_pressure;Samples;Min_cycle;Max_cycle;Signal;HPM_P1;HPM_P2
2021/06/28 00:02:20;;;;;;;;;;;14.50;76.70;;;;;;5018903;27;95812;-49
2021/06/28 00:04:52;;;;;;;;;;;14.50;76.70;;;;;;5018357;28;95799;-46
2021/06/28 00:07:22;;;;;;;;;;;14.60;76.60;;;;;;5020256;28;96994;-58
2021/06/28 00:09:52;;;;;;;;;;;14.50;76.50;;;;;;5025663;28;95693;-47
2021/06/28 00:12:21;;;;;;;;;;;14.60;76.60;;;;;;5026803;28;96105;-46
2021/06/28 00:14:50;;;;;;;;;;;14.50;76.60;;;;;;5022762;28;96120;-58
2021/06/28 00:17:20;;;;;;;;;;;14.60;76.60;;;;;;5001229;28;95987;-47
2021/06/28 00:19:52;;;;;;;;;;;14.50;76.50;;;;;;5016528;27;96822;-56
2021/06/28 00:22:24;;;;;;;;;;;14.60;76.50;;;;;;5000077;28;95689;-58
2021/06/28 00:24:55;;;;;;;;;;;14.60;76.40;;;;;;5023675;28;96338;-49
2021/06/28 00:27:28;;;;;;;;;;;14.60;76.40;;;;;;5025107;28;95638;-47
2021/06/28 00:30:00;;;;;;;;;;;14.60;76.60;;;;;;5006746;28;96020;-58
2021/06/28 00:32:30;;;;;;;;;;;14.70;76.60;;;;;;5020774;28;96059;-53
2021/06/28 00:35:03;;;;;;;;;;;14.70;76.40;;;;;;5028677;27;101113;-60
2021/06/28 00:37:32;;;;;;;;;;;14.80;76.30;;;;;;5022139;27;95954;-46
2021/06/28 00:40:07;;;;;;;;;;;14.80;76.30;;;;;;5018842;28;95396;-58
2021/06/28 00:42:38;;;;;;;;;;;14.80;76.20;;;;;;5018593;28;95922;-57
2021/06/28 00:45:15;;;;;;;;;;;14.90;76.10;;;;;;5013892;28;97439;-59
2021/06/28 00:47:45;;;;;;;;;;;15.00;76.00;;;;;;5023666;28;95893;-46
2021/06/28 00:50:17;;;;;;;;;;;15.00;75.70;;;;;;5020857;28;95376;-56
2021/06/28 00:52:48;;;;;;;;;;;15.10;75.40;;;;;;5022945;28;95258;-58
2021/06/28 00:55:17;;;;;;;;;;;15.10;74.80;;;;;;5017522;28;96301;-58
2021/06/28 00:57:47;;;;;;;;;;;15.10;74.80;;;;;;5025422;28;95837;-55
2021/06/28 01:00:20;;;;;;;;;;;15.20;75.10;;;;;;5015260;28;95855;-55
2021/06/28 01:02:52;;;;;;;;;;;15.20;75.20;;;;;;5024573;28;95227;-56
2021/06/28 01:05:26;;;;;;;;;;;15.30;75.20;;;;;;5023061;27;96493;-59
2021/06/28 01:07:56;;;;;;;;;;;15.20;75.10;;;;;;5026724;28;95741;-51
2021/06/28 01:10:25;;;;;;;;;;;15.20;75.10;;;;;;5018724;28;95744;-47
2021/06/28 01:12:55;;;;;;;;;;;15.20;75.00;;;;;;5026817;28;95269;-57
2021/06/28 01:15:25;;;;;;;;;;;15.20;74.90;;;;;;5016192;28;96556;-56
2021/06/28 01:17:55;;;;;;;;;;;15.30;74.80;;;;;;5019545;28;95736;-46
2021/06/28 01:20:28;;;;;;;;;;;15.40;74.70;;;;;;5020374;28;96239;-57
2021/06/28 01:23:18;;;;;;;;;;;15.40;74.60;;;;;;5024140;28;95673;-56
2021/06/28 01:25:49;;;;;;;;;;;15.40;74.40;;;;;;5015590;27;96147;-55
2021/06/28 01:28:21;;;;;;;;;;;15.40;74.40;;;;;;5025469;28;95763;-57
2021/06/28 01:30:53;;;;;;;;;;;15.50;74.30;;;;;;5015645;27;95835;-49
2021/06/28 01:33:23;;;;;;;;;;;15.50;74.10;;;;;;5021899;27;95964;-57
2021/06/28 01:35:52;;;;;;;;;;;15.60;74.20;;;;;;5018438;27;95999;-47
2021/06/28 01:38:21;;;;;;;;;;;15.60;74.10;;;;;;5024632;27;95771;-55
2021/06/28 01:40:53;;;;;;;;;;;15.60;74.30;;;;;;5037377;27;95625;-46
2021/06/28 01:43:25;;;;;;;;;;;15.60;74.10;;;;;;5023608;28;95890;-57
2021/06/28 01:45:55;;;;;;;;;;;15.60;74.30;;;;;;5014106;27;95815;-46
2021/06/28 01:48:25;;;;;;;;;;;15.60;74.20;;;;;;5016285;28;96542;-45
2021/06/28 01:50:55;;;;;;;;;;;15.60;74.20;;;;;;5023500;28;96023;-45
2021/06/28 01:53:26;;;;;;;;;;;15.60;74.40;;;;;;5020791;27;95880;-44
2021/06/28 01:55:55;;;;;;;;;;;15.60;74.30;;;;;;5020377;28;95885;-58
2021/06/28 01:58:25;;;;;;;;;;;15.80;74.30;;;;;;5019582;27;95785;-58
2021/06/28 02:00:56;;;;;;;;;;;15.80;74.10;;;;;;5016857;27;95341;-48
2021/06/28 02:03:26;;;;;;;;;;;15.80;74.00;;;;;;5020829;28;95745;-43
2021/06/28 02:05:59;;;;;;;;;;;15.90;74.40;;;;;;5020122;28;96601;-56
2021/06/28 02:08:30;;;;;;;;;;;16.00;74.70;;;;;;5023479;27;95266;-45
2021/06/28 02:11:03;;;;;;;;;;;16.10;74.90;;;;;;5022205;28;95861;-44
2021/06/28 02:13:36;;;;;;;;;;;16.20;74.90;;;;;;5024336;27;96110;-53
2021/06/28 02:16:08;;;;;;;;;;;16.30;75.00;;;;;;5016450;28;96265;-45
2021/06/28 02:18:40;;;;;;;;;;;16.40;75.00;;;;;;5023316;27;95603;-45
2021/06/28 02:21:13;;;;;;;;;;;16.50;74.90;;;;;;5018241;28;95428;-44
2021/06/28 02:23:44;;;;;;;;;;;16.60;74.90;;;;;;5017919;28;96927;-44
2021/06/28 02:26:17;;;;;;;;;;;16.70;74.90;;;;;;5035177;27;96069;-45
2021/06/28 02:28:48;;;;;;;;;;;16.80;74.70;;;;;;5018721;28;96684;-44
2021/06/28 02:31:22;;;;;;;;;;;16.90;74.80;;;;;;5017893;27;95939;-44
2021/06/28 02:33:52;;;;;;;;;;;17.00;74.70;;;;;;5009973;27;101036;-44
2021/06/28 02:36:23;;;;;;;;;;;17.10;74.60;;;;;;5016399;27;95895;-45
2021/06/28 02:38:53;;;;;;;;;;;17.20;71.10;;;;;;5017660;27;96740;-45
2021/06/28 02:41:24;;;;;;;;;;;17.10;71.10;;;;;;4999975;28;96349;-46
2021/06/28 02:43:55;;;;;;;;;;;17.00;71.20;;;;;;4997829;28;95860;-45
2021/06/28 02:46:25;;;;;;;;;;;17.00;71.60;;;;;;5013212;27;95793;-45
2021/06/28 02:48:57;;;;;;;;;;;16.90;71.70;;;;;;5001787;28;98196;-45
2021/06/28 02:51:28;;;;;;;;;;;16.80;71.90;;;;;;5018549;28;95819;-46
2021/06/28 02:53:59;;;;;;;;;;;16.80;72.20;;;;;;5013359;27;95230;-45
2021/06/28 02:56:29;;;;;;;;;;;16.80;72.20;;;;;;5014827;28;96448;-45
2021/06/28 02:59:00;;;;;;;;;;;16.70;72.40;;;;;;5011413;27;96242;-45
2021/06/28 03:01:30;;;;;;;;;;;16.80;72.60;;;;;;4997785;28;95799;-45
2021/06/28 03:04:00;;;;;;;;;;;16.70;72.50;;;;;;5016207;28;95953;-45
2021/06/28 03:06:31;;;;;;;;;;;16.70;72.60;;;;;;5004761;28;96628;-45
2021/06/28 03:09:02;;;;;;;;;;;16.70;72.60;;;;;;5016437;28;95951;-45
2021/06/28 03:11:31;;;;;;;;;;;16.70;72.70;;;;;;5011149;28;95735;-45
2021/06/28 03:14:01;;;;;;;;;;;16.60;72.70;;;;;;5004424;28;95955;-47
2021/06/28 03:16:31;;;;;;;;;;;16.70;72.80;;;;;;4996756;28;102035;-43
2021/06/28 03:19:01;;;;;;;;;;;16.70;73.20;;;;;;5025126;27;95730;-43
2021/06/28 03:21:31;;;;;;;;;;;16.80;73.70;;;;;;5024998;28;95961;-43
2021/06/28 03:24:02;;;;;;;;;;;17.00;73.00;;;;;;5023927;28;95641;-44
2021/06/28 03:26:34;;;;;;;;;;;17.20;73.00;;;;;;5015420;27;95963;-43
2021/06/28 03:29:04;;;;;;;;;;;17.30;72.90;;;;;;5021388;28;95400;-43
2021/06/28 03:31:34;;;;;;;;;;;17.50;72.70;;;;;;5005327;28;95993;-43
2021/06/28 03:34:05;;;;;;;;;;;17.60;72.80;;;;;;5026153;27;96261;-43
2021/06/28 03:36:35;;;;;;;;;;;17.60;72.80;;;;;;5025813;27;96416;-44
2021/06/28 03:39:04;;;;;;;;;;;17.80;72.70;;;;;;5022560;27;95831;-45
2021/06/28 03:41:36;;;;;;;;;;;17.90;71.80;;;;;;5006790;28;95726;-55
2021/06/28 03:44:06;;;;;;;;;;;17.80;70.00;;;;;;5013294;28;95792;-46
2021/06/28 03:46:36;;;;;;;;;;;17.70;70.20;;;;;;5010876;28;95838;-43
2021/06/28 03:49:07;;;;;;;;;;;17.60;70.70;;;;;;5018393;28;95927;-44
2021/06/28 03:51:37;;;;;;;;;;;17.50;70.90;;;;;;5001374;28;96075;-43
2021/06/28 03:54:08;;;;;;;;;;;17.50;71.10;;;;;;5015449;28;95850;-44
2021/06/28 03:56:38;;;;;;;;;;;17.50;71.20;;;;;;5013798;28;95924;-44
2021/06/28 03:59:08;;;;;;;;;;;17.50;71.20;;;;;;5015974;28;95707;-45
2021/06/28 04:01:40;;;;;;;;;;;17.50;71.30;;;;;;5009638;28;95297;-44
2021/06/28 04:04:10;;;;;;;;;;;17.50;71.30;;;;;;5017406;28;95668;-44
2021/06/28 04:06:41;;;;;;;;;;;17.50;71.50;;;;;;5013834;28;96428;-45
2021/06/28 04:09:11;;;;;;;;;;;17.50;71.30;;;;;;5014687;28;95805;-45
2021/06/28 04:11:40;;;;;;;;;;;17.50;71.20;;;;;;5019941;27;95850;-45
2021/06/28 04:14:12;;;;;;;;;;;17.50;71.30;;;;;;5017992;28;96049;-45
2021/06/28 04:16:42;;;;;;;;;;;17.40;71.30;;;;;;5013003;28;95887;-46
2021/06/28 04:19:14;;;;;;;;;;;17.40;71.40;;;;;;5021050;28;96244;-46
2021/06/28 04:21:44;;;;;;;;;;;17.40;71.60;;;;;;5021523;28;95847;-45
2021/06/28 04:24:14;;;;;;;;;;;17.30;71.60;;;;;;5003206;28;96320;-45
2021/06/28 04:26:45;;;;;;;;;;;17.30;71.70;;;;;;5005965;28;96034;-44
2021/06/28 04:29:16;;;;;;;;;;;17.40;71.90;;;;;;5022639;28;95935;-44
2021/06/28 04:31:48;;;;;;;;;;;17.40;71.90;;;;;;5023520;27;96130;-45
2021/06/28 04:34:18;;;;;;;;;;;17.40;71.80;;;;;;5000738;27;95852;-45
2021/06/28 04:36:48;;;;;;;;;;;17.50;71.80;;;;;;5022186;27;96444;-45
2021/06/28 04:39:19;;;;;;;;;;;17.50;71.80;;;;;;5021024;27;95636;-45
2021/06/28 04:41:50;;;;;;;;;;;17.50;71.80;;;;;;5024510;28;95949;-45
2021/06/28 04:44:20;;;;;;;;;;;17.50;71.70;;;;;;5002534;28;95537;-45
2021/06/28 04:46:50;;;;;;;;;;;17.50;71.80;;;;;;5016129;27;98362;-46
2021/06/28 04:49:22;;;;;;;;;;;17.50;72.20;;;;;;5017438;28;95270;-45
2021/06/28 04:51:53;;;;;;;;;;;17.50;71.50;;;;;;5023688;28;95264;-46
2021/06/28 04:54:22;;;;;;;;;;;17.60;71.50;;;;;;5019654;28;95956;-44
2021/06/28 04:56:51;;;;;;;;;;;17.60;71.40;;;;;;5023589;28;95912;-45
2021/06/28 04:59:22;;;;;;;;;;;17.70;71.50;;;;;;4999976;28;95948;-45
2021/06/28 05:01:53;;;;;;;;;;;17.70;71.40;;;;;;5011523;27;97569;-45
2021/06/28 05:04:23;;;;;;;;;;;17.70;71.50;;;;;;5000801;28;101908;-45
2021/06/28 05:06:53;;;;;;;;;;;17.80;71.90;;;;;;5023389;28;96605;-44
2021/06/28 05:09:22;;;;;;;;;;;17.90;71.90;;;;;;5020602;28;95861;-43
2021/06/28 05:11:52;;;;;;;;;;;18.10;72.10;;;;;;5024288;28;95863;-44
2021/06/28 05:14:22;;;;;;;;;;;18.10;72.00;;;;;;5019579;28;95887;-44
2021/06/28 05:16:52;;;;;;;;;;;18.20;72.00;;;;;;5019386;28;97375;-44
2021/06/28 05:19:23;;;;;;;;;;;18.30;72.00;;;;;;5020140;27;97008;-44
2021/06/28 05:21:54;;;;;;;;;;;18.40;71.90;;;;;;5023540;27;95623;-43
2021/06/28 05:24:24;;;;;;;;;;;18.40;71.90;;;;;;5024148;28;95698;-44
2021/06/28 05:26:54;;;;;;;;;;;18.60;72.10;;;;;;5003531;28;96216;-44
2021/06/28 05:29:25;;;;;;;;;;;18.70;72.00;;;;;;5023701;28;95794;-43
2021/06/28 05:31:57;;;;;;;;;;;18.70;71.70;;;;;;5014579;28;95919;-45
2021/06/28 05:34:26;;;;;;;;;;;18.80;71.60;;;;;;5017758;27;96008;-44
2021/06/28 05:36:55;;;;;;;;;;;18.90;71.60;;;;;;5018646;27;96421;-46
2021/06/28 05:39:25;;;;;;;;;;;19.00;71.60;;;;;;5023668;28;95923;-44
2021/06/28 05:41:55;;;;;;;;;;;19.00;71.50;;;;;;5022725;27;95862;-44
2021/06/28 05:44:25;;;;;;;;;;;19.10;71.40;;;;;;5024289;28;96497;-49
2021/06/28 05:46:56;;;;;;;;;;;19.10;70.80;;;;;;5014923;27;96442;-46
2021/06/28 05:49:28;;;;;;;;;;;18.90;68.10;;;;;;5021641;28;96611;-47
2021/06/28 05:51:59;;;;;;;;;;;18.70;68.90;;;;;;5020754;28;96223;-48
2021/06/28 05:54:28;;;;;;;;;;;18.60;69.40;;;;;;5004923;28;96023;-45
2021/06/28 05:56:58;;;;;;;;;;;18.50;70.20;;;;;;5017614;28;95964;-47
2021/06/28 05:59:29;;;;;;;;;;;18.50;69.70;;;;;;5021951;28;98146;-44
2021/06/28 06:01:59;;;;;;;;;;;18.50;69.70;;;;;;5015166;28;95938;-45
2021/06/28 06:04:29;;;;;;;;;;;18.50;69.80;;;;;;5020364;28;95780;-45
2021/06/28 06:07:00;;;;;;;;;;;18.50;70.00;;;;;;5018633;28;95905;-45
2021/06/28 06:09:30;;;;;;;;;;;18.50;70.20;;;;;;5015924;28;95976;-45
2021/06/28 06:12:00;;;;;;;;;;;18.40;70.20;;;;;;5013035;28;95714;-45
2021/06/28 06:14:30;;;;;;;;;;;18.30;70.30;;;;;;5023018;28;95254;-45
2021/06/28 06:17:00;;;;;;;;;;;18.30;70.30;;;;;;5013094;28;96575;-45
2021/06/28 06:19:31;;;;;;;;;;;18.30;70.40;;;;;;5019171;28;95821;-45
2021/06/28 06:22:02;;;;;;;;;;;18.30;70.50;;;;;;5015834;27;96246;-45
2021/06/28 06:24:33;;;;;;;;;;;18.20;70.70;;;;;;5020533;28;95772;-46
2021/06/28 06:27:06;;;;;;;;;;;18.20;70.70;;;;;;5018788;27;96111;-45
2021/06/28 06:29:37;;;;;;;;;;;18.10;70.70;;;;;;5021051;28;96288;-45
2021/06/28 06:32:08;;;;;;;;;;;18.10;70.70;;;;;;5015144;28;96510;-44
2021/06/28 06:34:38;;;;;;;;;;;18.10;70.70;;;;;;5011446;27;95383;-45
2021/06/28 06:37:09;;;;;;;;;;;18.10;70.70;;;;;;5015553;27;97074;-45
2021/06/28 06:39:41;;;;;;;;;;;18.00;70.70;;;;;;5017709;28;95996;-45
2021/06/28 06:42:11;;;;;;;;;;;18.00;70.90;;;;;;5022288;28;95918;-45
2021/06/28 06:44:40;;;;;;;;;;;18.00;71.00;;;;;;5019955;27;96092;-46
2021/06/28 06:47:09;;;;;;;;;;;17.90;71.10;;;;;;5014217;28;96473;-45
2021/06/28 06:49:42;;;;;;;;;;;17.90;71.20;;;;;;5015955;28;95678;-45
2021/06/28 06:52:12;;;;;;;;;;;17.80;71.20;;;;;;5020312;28;96450;-44
2021/06/28 06:54:42;;;;;;;;;;;17.80;71.30;;;;;;4998179;28;96367;-46
2021/06/28 06:57:12;;;;;;;;;;;17.80;71.20;;;;;;5001176;28;98352;-44
2021/06/28 06:59:43;;;;;;;;;;;17.80;71.50;;;;;;4998782;28;96478;-47
2021/06/28 07:02:15;;;;;;;;;;;17.70;71.40;;;;;;5015815;28;96592;-47
2021/06/28 07:04:45;;;;;;;;;;;17.60;71.20;;;;;;5017394;28;96810;-54
2021/06/28 07:07:15;;;;;;;;;;;17.60;71.40;;;;;;5017650;28;96437;-46
2021/06/28 07:09:45;;;;;;;;;;;17.50;71.60;;;;;;5016211;28;95536;-46
2021/06/28 07:12:16;;;;;;;;;;;17.40;71.90;;;;;;5019041;28;95442;-48
2021/06/28 07:14:46;;;;;;;;;;;17.40;72.10;;;;;;5018879;27;96644;-49
2021/06/28 07:17:16;;;;;;;;;;;17.30;72.30;;;;;;4995153;28;98068;-55
2021/06/28 07:19:47;;;;;;;;;;;17.30;73.10;;;;;;5018743;28;96055;-45
2021/06/28 07:22:18;;;;;;;;;;;17.20;72.60;;;;;;5020331;28;95943;-46
2021/06/28 07:24:49;;;;;;;;;;;17.10;72.70;;;;;;5017481;28;95978;-46
2021/06/28 07:27:20;;;;;;;;;;;17.10;72.80;;;;;;5019973;27;95833;-45
2021/06/28 07:29:50;;;;;;;;;;;17.10;73.00;;;;;;5017525;28;95836;-45
2021/06/28 07:32:22;;;;;;;;;;;17.00;73.10;;;;;;5017525;28;96131;-45
2021/06/28 07:34:53;;;;;;;;;;;17.00;73.30;;;;;;5010240;27;95925;-57
2021/06/28 07:37:23;;;;;;;;;;;16.90;73.30;;;;;;5017243;27;95897;-46
2021/06/28 07:39:54;;;;;;;;;;;16.90;73.40;;;;;;5016645;27;95872;-54
2021/06/28 07:42:25;;;;;;;;;;;16.90;73.50;;;;;;5021891;28;95961;-56
2021/06/28 07:44:55;;;;;;;;;;;16.80;73.60;;;;;;5017481;28;95614;-57
2021/06/28 07:47:25;;;;;;;;;;;16.80;73.60;;;;;;5015424;28;96464;-45
2021/06/28 07:49:58;;;;;;;;;;;16.70;73.70;;;;;;5021608;28;95884;-55
2021/06/28 07:52:29;;;;;;;;;;;16.70;73.80;;;;;;5019344;28;96577;-56
2021/06/28 07:54:59;;;;;;;;;;;16.70;73.90;;;;;;5024093;28;95668;-57
2021/06/28 07:57:30;;;;;;;;;;;16.60;73.90;;;;;;5020603;28;96681;-46
2021/06/28 08:00:01;;;;;;;;;;;16.60;73.90;;;;;;5023989;28;95900;-58
2021/06/28 08:02:39;;;;;;;;;;;16.60;74.10;;;;;;5015517;27;96086;-45
2021/06/28 08:05:14;;;;;;;;;;;16.50;74.00;;;;;;5003474;28;95816;-45
2021/06/28 08:07:45;;;;;;;;;;;16.50;74.10;;;;;;5005153;28;101969;-46
2021/06/28 08:10:16;;;;;;;;;;;16.50;74.00;;;;;;5022362;28;96041;-45
2021/06/28 08:12:49;;;;;;;;;;;16.50;74.10;;;;;;5022055;28;96114;-53
2021/06/28 08:15:20;;;;;;;;;;;16.50;74.20;;;;;;5020608;28;95775;-46
2021/06/28 08:17:53;;;;;;;;;;;16.50;74.30;;;;;;5018723;28;96271;-57
2021/06/28 08:20:24;;;;;;;;;;;16.40;74.40;;;;;;5004788;28;96287;-57
2021/06/28 08:22:54;;;;;;;;;;;16.40;74.20;;;;;;5021801;27;101076;-53
2021/06/28 08:25:25;;;;;;;;;;;16.50;74.00;;;;;;5024862;28;96212;-45
2021/06/28 08:27:56;;;;;;;;;;;16.50;74.10;;;;;;5023016;27;103921;-58
2021/06/28 08:30:27;;;;;;;;;;;16.50;74.10;;;;;;5020196;28;98293;-58
2021/06/28 08:32:59;;;;;;;;;;;16.40;74.00;;;;;;5019714;27;98583;-59
2021/06/28 08:35:28;;;;;;;;;;;16.40;74.20;;;;;;5013007;27;96047;-54
2021/06/28 08:37:58;;;;;;;;;;;16.50;74.50;;;;;;5003943;28;96704;-59
2021/06/28 08:40:29;;;;;;;;;;;16.60;73.80;;;;;;5023945;28;97268;-58
2021/06/28 08:43:01;;;;;;;;;;;16.70;73.50;;;;;;5003547;28;96645;-57
2021/06/28 08:45:42;;;;;;;;;;;16.80;73.30;;;;;;5020863;28;95918;-55
2021/06/28 08:48:17;;;;;;;;;;;16.90;73.70;;;;;;5021632;28;95932;-54
2021/06/28 08:50:47;;;;;;;;;;;17.00;73.00;;;;;;5023073;28;95618;-57
2021/06/28 08:53:21;;;;;;;;;;;17.10;72.90;;;;;;5019606;28;95959;-47
2021/06/28 08:55:51;;;;;;;;;;;17.10;72.60;;;;;;5025641;28;95962;-58
2021/06/28 08:58:22;;;;;;;;;;;17.10;72.70;;;;;;5021315;27;96307;-58
2021/06/28 09:00:53;;;;;;;;;;;17.10;73.00;;;;;;5018969;28;96304;-55
2021/06/28 09:03:23;;;;;;;;;;;17.10;73.10;;;;;;5020282;28;96116;-48
2021/06/28 09:06:06;;;;;;;;;;;17.00;73.20;;;;;;5022769;28;95781;-48
2021/06/28 09:08:37;;;;;;;;;;;17.00;73.40;;;;;;5017780;27;95823;-48
2021/06/28 09:11:16;;;;;;;;;;;16.90;73.50;;;;;;5016534;28;95642;-50
2021/06/28 09:13:48;;;;;;;;;;;16.90;73.60;;;;;;5020751;28;95706;-48
2021/06/28 09:16:25;;;;;;;;;;;16.90;73.70;;;;;;5018056;28;95877;-49
2021/06/28 09:19:05;;;;;;;;;;;16.80;73.80;;;;;;5020681;28;99699;-49
2021/06/28 09:21:40;;;;;;;;;;;16.80;73.90;;;;;;5022881;28;96223;-49
2021/06/28 09:24:23;;;;;;;;;;;16.70;74.00;;;;;;5019011;28;95773;-48
2021/06/28 09:26:58;;;;;;;;;;;16.70;74.00;;;;;;5021554;28;95739;-49
2021/06/28 09:29:34;;;;;;;;;;;16.70;74.00;;;;;;5019892;28;95843;-49
2021/06/28 09:32:12;;;;;;;;;;;16.70;74.20;;;;;;5016693;28;95697;-50
2021/06/28 09:34:42;;;;;;;;;;;16.90;73.50;;;;;;5010726;27;97173;-47
2021/06/28 09:37:15;;;;;;;;;;;16.90;73.30;;;;;;5017295;27;97051;-48
2021/06/28 09:39:50;;;;;;;;;;;17.00;73.30;;;;;;5034522;27;95808;-46
2021/06/28 09:42:21;;;;;;;;;;;17.10;73.10;;;;;;5022070;28;96877;-47
2021/06/28 09:44:56;;;;;;;;;;;17.10;72.90;;;;;;5019477;28;96255;-47
2021/06/28 09:47:26;;;;;;;;;;;17.10;72.80;;;;;;5019597;28;96116;-46
2021/06/28 09:50:08;;;;;;;;;;;17.20;72.70;;;;;;5020101;27;97555;-48
2021/06/28 09:52:39;;;;;;;;;;;17.10;72.50;;;;;;5023583;28;95784;-46
2021/06/28 09:55:11;;;;;;;;;;;17.10;72.60;;;;;;5021323;27;95686;-46
2021/06/28 09:58:04;;;;;;;;;;;17.10;72.60;;;;;;5022929;28;95887;-49
2021/06/28 10:00:36;;;;;;;;;;;17.10;72.70;;;;;;5009711;28;103190;-45
2021/06/28 10:03:35;;;;;;;;;;;17.10;72.60;;;;;;5023221;28;97268;-49
2021/06/28 10:08:38;;;;;;;;;;;17.10;72.60;;;;;;5022864;28;95798;-46
2021/06/28 10:11:14;;;;;;;;;;;17.10;72.60;;;;;;5021547;28;97045;-46
2021/06/28 10:13:46;;;;;;;;;;;17.10;72.80;;;;;;5021568;28;96430;-45
2021/06/28 10:16:19;;;;;;;;;;;17.10;73.00;;;;;;5011828;28;96008;-47
2021/06/28 10:18:53;;;;;;;;;;;17.00;72.90;;;;;;5024413;28;96128;-46
2021/06/28 10:21:24;;;;;;;;;;;17.00;73.10;;;;;;5019525;27;96431;-46
2021/06/28 10:23:56;;;;;;;;;;;17.00;73.00;;;;;;5003447;28;96741;-47
2021/06/28 10:26:28;;;;;;;;;;;17.00;72.90;;;;;;5020325;28;95434;-48
2021/06/28 10:29:00;;;;;;;;;;;17.00;72.90;;;;;;5021716;28;96616;-46
2021/06/28 10:31:35;;;;;;;;;;;17.00;73.00;;;;;;5013895;27;98104;-45
2021/06/28 10:34:05;;;;;;;;;;;17.00;72.90;;;;;;5015030;27;96266;-45
2021/06/28 10:36:39;;;;;;;;;;;17.00;72.90;;;;;;5012309;27;95963;-46
2021/06/28 10:39:10;;;;;;;;;;;16.90;72.90;;;;;;5023735;28;96582;-47
2021/06/28 10:41:42;;;;;;;;;;;16.90;73.00;;;;;;5023658;28;97008;-46
2021/06/28 10:44:13;;;;;;;;;;;16.90;73.10;;;;;;5023033;28;95300;-47
2021/06/28 10:46:45;;;;;;;;;;;16.90;73.10;;;;;;5009436;28;95869;-46
2021/06/28 10:49:16;;;;;;;;;;;16.80;73.20;;;;;;5014586;28;96015;-45
2021/06/28 10:51:49;;;;;;;;;;;16.80;73.20;;;;;;5003743;28;98033;-47
2021/06/28 10:54:20;;;;;;;;;;;16.70;73.00;;;;;;5021156;28;96180;-47
2021/06/28 10:56:57;;;;;;;;;;;16.70;73.00;;;;;;5023437;28;95291;-45
2021/06/28 10:59:29;;;;;;;;;;;16.70;73.10;;;;;;5020982;28;95831;-45
2021/06/28 11:02:00;;;;;;;;;;;16.70;72.90;;;;;;5017189;28;95821;-48
2021/06/28 11:04:34;;;;;;;;;;;16.70;72.90;;;;;;5019247;27;95922;-49
2021/06/28 11:07:05;;;;;;;;;;;16.80;73.10;;;;;;5022715;28;96003;-48
2021/06/28 11:09:36;;;;;;;;;;;16.80;73.10;;;;;;5002508;28;96536;-47
2021/06/28 11:12:21;;;;;;;;;;;16.80;73.00;;;;;;5004323;28;95789;-49
2021/06/28 11:14:51;;;;;;;;;;;16.70;72.90;;;;;;5019040;28;95943;-48
2021/06/28 11:17:24;;;;;;;;;;;16.60;72.90;;;;;;5016805;28;95338;-48
2021/06/28 11:20:05;;;;;;;;;;;16.60;72.90;;;;;;5018128;27;96020;-50
2021/06/28 11:22:35;;;;;;;;;;;16.50;73.00;;;;;;5003903;28;96109;-48
2021/06/28 11:25:12;;;;;;;;;;;16.50;73.10;;;;;;5004160;28;95759;-48
2021/06/28 11:27:49;;;;;;;;;;;16.40;73.00;;;;;;5024065;28;95895;-48
2021/06/28 11:30:20;;;;;;;;;;;16.40;73.00;;;;;;5015987;28;95985;-47
2021/06/28 11:33:01;;;;;;;;;;;16.40;73.00;;;;;;5003845;27;98144;-50
2021/06/28 11:35:47;;;;;;;;;;;16.30;73.00;;;;;;5015227;27;95934;-52
2021/06/28 11:38:17;;;;;;;;;;;16.40;73.10;;;;;;5022932;28;95697;-47
2021/06/28 11:40:50;;;;;;;;;;;16.30;73.00;;;;;;5023039;28;96930;-47
2021/06/28 11:43:34;;;;;;;;;;;16.30;72.90;;;;;;5001030;28;96179;-47
2021/06/28 11:46:04;;;;;;;;;;;16.20;72.90;;;;;;5012679;28;95950;-48
2021/06/28 11:48:36;;;;;;;;;;;16.20;72.80;;;;;;5015501;28;95946;-47
2021/06/28 11:51:21;;;;;;;;;;;16.20;73.00;;;;;;5009787;28;96608;-48
2021/06/28 11:53:58;;;;;;;;;;;16.20;73.00;;;;;;5023696;28;97417;-48
2021/06/28 11:56:31;;;;;;;;;;;16.20;72.90;;;;;;5019461;27;96253;-47
2021/06/28 11:59:03;;;;;;;;;;;16.20;72.80;;;;;;5024905;28;95813;-47
2021/06/28 12:01:39;;;;;;;;;;;16.10;72.80;;;;;;5018303;28;98714;-49
2021/06/28 12:04:17;;;;;;;;;;;16.10;72.80;;;;;;5015951;28;96352;-47
2021/06/28 12:06:49;;;;;;;;;;;16.10;72.70;;;;;;5021950;28;95995;-49
2021/06/28 12:09:19;;;;;;;;;;;16.10;72.60;;;;;;5023844;28;95650;-48
2021/06/28 12:11:50;;;;;;;;;;;16.00;72.60;;;;;;5002687;28;95986;-48
2021/06/28 12:14:28;;;;;;;;;;;16.00;72.60;;;;;;5025298;28;95800;-45
2021/06/28 12:17:00;;;;;;;;;;;16.00;72.70;;;;;;5019142;27;98679;-45
2021/06/28 12:19:31;;;;;;;;;;;16.10;72.80;;;;;;5025050;28;95748;-45
2021/06/28 12:22:14;;;;;;;;;;;16.20;72.70;;;;;;5023968;28;96777;-46
2021/06/28 12:24:46;;;;;;;;;;;16.20;73.20;;;;;;5025819;27;96047;-45
2021/06/28 12:27:20;;;;;;;;;;;16.30;72.50;;;;;;5022134;27;96190;-56
2021/06/28 12:29:54;;;;;;;;;;;16.30;72.50;;;;;;5025258;28;95912;-45
2021/06/28 12:32:28;;;;;;;;;;;16.40;72.50;;;;;;5018550;27;96141;-45
2021/06/28 12:35:08;;;;;;;;;;;16.40;72.40;;;;;;5019450;27;96377;-45
2021/06/28 12:37:38;;;;;;;;;;;16.50;72.50;;;;;;5023239;27;96454;-44
2021/06/28 12:40:14;;;;;;;;;;;16.50;72.60;;;;;;5025347;28;95676;-46
2021/06/28 12:42:55;;;;;;;;;;;16.60;72.60;;;;;;5022256;27;96548;-44
2021/06/28 12:45:26;;;;;;;;;;;16.50;72.70;;;;;;5020178;28;95763;-44
2021/06/28 12:47:58;;;;;;;;;;;16.60;72.90;;;;;;5021579;28;101753;-45
2021/06/28 12:50:30;;;;;;;;;;;16.60;73.00;;;;;;5040237;27;96034;-49
2021/06/28 12:53:01;;;;;;;;;;;16.60;73.00;;;;;;5015615;27;96387;-47
2021/06/28 12:55:33;;;;;;;;;;;16.60;73.00;;;;;;5023987;28;95779;-48
2021/06/28 12:58:10;;;;;;;;;;;16.60;73.00;;;;;;5022586;28;95996;-51
2021/06/28 13:00:49;;;;;;;;;;;16.70;73.00;;;;;;5018790;28;96662;-45
2021/06/28 13:03:26;;;;;;;;;;;16.70;73.10;;;;;;5020268;28;101062;-46
2021/06/28 13:06:00;;;;;;;;;;;16.70;73.10;;;;;;5023972;28;96711;-47
2021/06/28 13:08:31;;;;;;;;;;;16.80;73.10;;;;;;5022477;28;96068;-47
2021/06/28 13:11:10;;;;;;;;;;;16.80;73.10;;;;;;5024404;28;96660;-49
2021/06/28 13:19:16;;;;;;;;;;;16.80;73.00;;;;;;5001244;28;96124;-44
2021/06/28 13:21:52;;;;;;;;;;;16.80;73.10;;;;;;5024650;28;96003;-47
2021/06/28 13:24:24;;;;;;;;;;;16.80;70.80;;;;;;5022171;28;96021;-48
2021/06/28 13:26:57;;;;;;;;;;;16.70;71.40;;;;;;5024386;28;96593;-47
2021/06/28 13:29:32;;;;;;;;;;;16.60;70.90;;;;;;5021445;27;95952;-47
2021/06/28 13:32:10;;;;;;;;;;;16.60;70.60;;;;;;5018765;28;98034;-47
2021/06/28 13:34:40;;;;;;;;;;;16.60;70.60;;;;;;5011107;27;96037;-48
2021/06/28 13:37:31;;;;;;;;;;;16.60;70.50;;;;;;5017802;27;96003;-47
2021/06/28 13:40:14;;;;;;;;;;;16.50;70.30;;;;;;5021165;28;95979;-46
2021/06/28 13:42:51;;;;;;;;;;;16.60;70.10;;;;;;5004693;28;96012;-47
2021/06/28 13:45:29;;;;;;;;;;;16.50;69.90;;;;;;5017012;27;95945;-46
2021/06/28 13:48:01;;;;;;;;;;;16.30;69.40;;;;;;5022013;28;102437;-48
2021/06/28 13:50:34;;;;;;;;;;;16.10;69.40;;;;;;5019839;27;96440;-47
2021/06/28 13:53:14;;;;;;;;;;;16.00;69.80;;;;;;5022382;28;95925;-47
2021/06/28 13:55:49;;;;;;;;;;;15.90;70.10;;;;;;5021036;28;95640;-47
2021/06/28 13:58:28;;;;;;;;;;;15.90;70.50;;;;;;5022382;28;96372;-47
2021/06/28 14:00:59;;;;;;;;;;;15.90;70.70;;;;;;5017205;28;95896;-47
2021/06/28 14:03:30;;;;;;;;;;;15.90;70.70;;;;;;5022864;28;96742;-49
2021/06/28 14:06:00;;;;;;;;;;;15.90;70.70;;;;;;5020221;28;95678;-49
2021/06/28 14:08:30;;;;;;;;;;;15.80;70.70;;;;;;5022742;28;95887;-47
2021/06/28 14:11:00;;;;;;;;;;;15.80;70.90;;;;;;5001056;28;97751;-46
2021/06/28 14:13:29;;;;;;;;;;;15.70;70.90;;;;;;5023606;27;95869;-46
2021/06/28 14:15:59;;;;;;;;;;;15.70;71.00;;;;;;5017106;28;96032;-46
2021/06/28 14:18:30;;;;;;;;;;;15.70;71.10;;;;;;5024012;28;95892;-46
2021/06/28 14:21:02;;;;;;;;;;;15.60;71.10;;;;;;5018939;28;95901;-46
2021/06/28 14:23:33;;;;;;;;;;;15.50;71.10;;;;;;5022946;28;95955;-46
2021/06/28 14:26:04;;;;;;;;;;;15.50;71.20;;;;;;5021134;27;101841;-47
2021/06/28 14:28:36;;;;;;;;;;;15.50;71.20;;;;;;5023600;28;96665;-46
2021/06/28 14:31:06;;;;;;;;;;;15.40;71.20;;;;;;4998159;28;95960;-46
2021/06/28 14:34:03;;;;;;;;;;;15.40;71.30;;;;;;4999542;27;100986;-47
2021/06/28 14:36:33;;;;;;;;;;;15.40;71.30;;;;;;5007716;28;100434;-46
2021/06/28 14:39:04;;;;;;;;;;;15.40;71.30;;;;;;5024452;27;95887;-47
2021/06/28 14:41:35;;;;;;;;;;;15.30;71.40;;;;;;5019692;27;96003;-46
2021/06/28 14:44:04;;;;;;;;;;;15.30;71.40;;;;;;5023444;27;96563;-46
2021/06/28 14:46:33;;;;;;;;;;;15.30;71.40;;;;;;5017737;28;95767;-47
2021/06/28 14:49:03;;;;;;;;;;;15.20;71.40;;;;;;5023185;28;95931;-49
2021/06/28 14:51:33;;;;;;;;;;;15.30;71.50;;;;;;5019496;28;95789;-48
2021/06/28 14:54:04;;;;;;;;;;;15.20;71.40;;;;;;5025268;28;96105;-49